sensor_id;sensor_type;location;lat;lon;timestamp;pressure;altitude;pressure_sealevel;temperature;humidity
19594;BME280;9944;48.240;16.478;2024-01-07T00:01:29;98772.56;;;2.21;85.77
19594;BME280;9944;48.240;16.478;2024-01-07T00:05:53;98767.28;;;2.18;85.60
19594;BME280;9944;48.240;16.478;2024-01-07T00:10:18;98767.22;;;2.13;85.39
19594;BME280;9944;48.240;16.478;2024-01-07T00:14:42;98760.31;;;2.13;85.53
19594;BME280;9944;48.240;16.478;2024-01-07T00:19:05;98756.72;;;2.05;85.33
19594;BME280;9944;48.240;16.478;2024-01-07T00:23:29;98763.66;;;2.03;85.53
19594;BME280;9944;48.240;16.478;2024-01-07T00:27:54;98771.38;;;1.99;85.56
19594;BME280;9944;48.240;16.478;2024-01-07T00:32:18;98785.25;;;1.98;85.54
19594;BME280;9944;48.240;16.478;2024-01-07T00:36:42;98781.75;;;1.97;85.78
19594;BME280;9944;48.240;16.478;2024-01-07T00:41:06;98784.31;;;1.94;85.64
19594;BME280;9944;48.240;16.478;2024-01-07T00:45:30;98783.34;;;1.86;85.20
19594;BME280;9944;48.240;16.478;2024-01-07T00:49:54;98786.72;;;1.80;85.01
19594;BME280;9944;48.240;16.478;2024-01-07T00:54:17;98787.50;;;1.74;85.13
19594;BME280;9944;48.240;16.478;2024-01-07T00:58:41;98793.56;;;1.72;84.80
19594;BME280;9944;48.240;16.478;2024-01-07T01:03:06;98797.72;;;1.62;84.70
19594;BME280;9944;48.240;16.478;2024-01-07T01:07:30;98806.28;;;1.55;84.61
19594;BME280;9944;48.240;16.478;2024-01-07T01:11:53;98809.63;;;1.48;84.52
19594;BME280;9944;48.240;16.478;2024-01-07T01:16:17;98806.91;;;1.42;85.03
19594;BME280;9944;48.240;16.478;2024-01-07T01:20:46;98816.41;;;1.39;84.83
19594;BME280;9944;48.240;16.478;2024-01-07T01:25:10;98815.41;;;1.31;84.86
19594;BME280;9944;48.240;16.478;2024-01-07T01:29:33;98824.81;;;1.23;85.07
19594;BME280;9944;48.240;16.478;2024-01-07T01:33:57;98822.94;;;1.16;85.23
19594;BME280;9944;48.240;16.478;2024-01-07T01:38:22;98824.59;;;1.11;85.38
19594;BME280;9944;48.240;16.478;2024-01-07T01:42:46;98821.06;;;1.09;85.51
19594;BME280;9944;48.240;16.478;2024-01-07T01:47:10;98819.34;;;1.08;85.63
19594;BME280;9944;48.240;16.478;2024-01-07T01:51:35;98818.44;;;1.06;85.76
19594;BME280;9944;48.240;16.478;2024-01-07T01:56:01;98812.28;;;1.00;85.82
19594;BME280;9944;48.240;16.478;2024-01-07T02:00:25;98806.22;;;1.01;86.09
19594;BME280;9944;48.240;16.478;2024-01-07T02:04:49;98811.34;;;0.98;85.89
19594;BME280;9944;48.240;16.478;2024-01-07T02:09:14;98814.72;;;0.93;85.86
19594;BME280;9944;48.240;16.478;2024-01-07T02:13:39;98813.00;;;0.92;86.07
19594;BME280;9944;48.240;16.478;2024-01-07T02:18:04;98806.88;;;0.91;85.96
19594;BME280;9944;48.240;16.478;2024-01-07T02:22:28;98806.84;;;0.90;86.00
19594;BME280;9944;48.240;16.478;2024-01-07T02:26:53;98813.63;;;0.80;85.57
19594;BME280;9944;48.240;16.478;2024-01-07T02:31:16;98807.53;;;0.78;85.73
19594;BME280;9944;48.240;16.478;2024-01-07T02:35:40;98812.56;;;0.70;85.49
19594;BME280;9944;48.240;16.478;2024-01-07T02:40:05;98819.47;;;0.70;85.61
19594;BME280;9944;48.240;16.478;2024-01-07T02:44:30;98815.03;;;0.64;85.40
19594;BME280;9944;48.240;16.478;2024-01-07T02:48:54;98817.66;;;0.64;85.59
19594;BME280;9944;48.240;16.478;2024-01-07T02:53:17;98806.31;;;0.60;85.06
19594;BME280;9944;48.240;16.478;2024-01-07T02:57:41;98804.53;;;0.58;85.50
19594;BME280;9944;48.240;16.478;2024-01-07T03:02:06;98806.25;;;0.57;85.62
19594;BME280;9944;48.240;16.478;2024-01-07T03:06:29;98822.72;;;0.59;85.52
19594;BME280;9944;48.240;16.478;2024-01-07T03:10:54;98827.00;;;0.56;85.24
19594;BME280;9944;48.240;16.478;2024-01-07T03:15:17;98833.13;;;0.59;85.15
19594;BME280;9944;48.240;16.478;2024-01-07T03:19:43;98835.69;;;0.58;84.95
19594;BME280;9944;48.240;16.478;2024-01-07T03:24:07;98834.84;;;0.59;85.04
19594;BME280;9944;48.240;16.478;2024-01-07T03:28:31;98842.63;;;0.59;85.03
19594;BME280;9944;48.240;16.478;2024-01-07T03:32:54;98837.53;;;0.63;85.05
19594;BME280;9944;48.240;16.478;2024-01-07T03:37:19;98840.09;;;0.62;84.50
19594;BME280;9944;48.240;16.478;2024-01-07T03:41:43;98837.34;;;0.54;83.65
19594;BME280;9944;48.240;16.478;2024-01-07T03:46:07;98842.47;;;0.51;84.49
19594;BME280;9944;48.240;16.478;2024-01-07T03:50:30;98838.25;;;0.56;83.67
19594;BME280;9944;48.240;16.478;2024-01-07T03:54:55;98831.13;;;0.48;82.70
19594;BME280;9944;48.240;16.478;2024-01-07T03:59:19;98841.41;;;0.43;83.32
19594;BME280;9944;48.240;16.478;2024-01-07T04:03:44;98846.69;;;0.46;83.30
19594;BME280;9944;48.240;16.478;2024-01-07T04:08:09;98843.94;;;0.38;83.25
19594;BME280;9944;48.240;16.478;2024-01-07T04:12:34;98843.03;;;0.36;83.48
19594;BME280;9944;48.240;16.478;2024-01-07T04:16:58;98840.31;;;0.32;82.54
19594;BME280;9944;48.240;16.478;2024-01-07T04:21:22;98847.25;;;0.31;82.50
19594;BME280;9944;48.240;16.478;2024-01-07T04:25:45;98850.63;;;0.29;82.34
19594;BME280;9944;48.240;16.478;2024-01-07T04:30:11;98857.38;;;0.20;81.92
19594;BME280;9944;48.240;16.478;2024-01-07T04:34:35;98850.44;;;0.19;81.37
19594;BME280;9944;48.240;16.478;2024-01-07T04:38:59;98855.56;;;0.16;81.15
19594;BME280;9944;48.240;16.478;2024-01-07T04:43:22;98859.81;;;0.13;81.15
19594;BME280;9944;48.240;16.478;2024-01-07T04:47:47;98861.50;;;0.11;80.32
19594;BME280;9944;48.240;16.478;2024-01-07T04:52:11;98866.56;;;0.06;80.20
19594;BME280;9944;48.240;16.478;2024-01-07T04:56:34;98863.03;;;0.02;80.60
19594;BME280;9944;48.240;16.478;2024-01-07T05:00:58;98869.06;;;0.03;80.21
19594;BME280;9944;48.240;16.478;2024-01-07T05:05:23;98878.56;;;0.01;80.58
19594;BME280;9944;48.240;16.478;2024-01-07T05:09:46;98884.59;;;-0.00;80.48
19594;BME280;9944;48.240;16.478;2024-01-07T05:14:11;98880.25;;;-0.01;79.70
19594;BME280;9944;48.240;16.478;2024-01-07T05:18:34;98894.00;;;-0.05;79.81
19594;BME280;9944;48.240;16.478;2024-01-07T05:23:00;98894.81;;;-0.06;80.14
19594;BME280;9944;48.240;16.478;2024-01-07T05:27:24;98898.22;;;-0.07;80.08
19594;BME280;9944;48.240;16.478;2024-01-07T05:31:48;98892.09;;;-0.11;80.03
19594;BME280;9944;48.240;16.478;2024-01-07T05:36:12;98910.22;;;-0.14;80.60
19594;BME280;9944;48.240;16.478;2024-01-07T05:40:37;98915.34;;;-0.16;80.47
19594;BME280;9944;48.240;16.478;2024-01-07T05:45:00;98925.63;;;-0.19;79.91
19594;BME280;9944;48.240;16.478;2024-01-07T05:49:25;98935.16;;;-0.19;79.70
19594;BME280;9944;48.240;16.478;2024-01-07T05:53:48;98922.09;;;-0.22;78.84
19594;BME280;9944;48.240;16.478;2024-01-07T05:58:13;98934.88;;;-0.28;79.33
19594;BME280;9944;48.240;16.478;2024-01-07T06:02:38;98933.13;;;-0.31;79.28
19594;BME280;9944;48.240;16.478;2024-01-07T06:07:02;98950.31;;;-0.35;79.06
19594;BME280;9944;48.240;16.478;2024-01-07T06:11:26;98954.53;;;-0.38;79.30
19594;BME280;9944;48.240;16.478;2024-01-07T06:15:51;98971.78;;;-0.40;79.48
19594;BME280;9944;48.240;16.478;2024-01-07T06:20:15;98967.38;;;-0.43;80.15
19594;BME280;9944;48.240;16.478;2024-01-07T06:24:39;98969.97;;;-0.43;80.91
19594;BME280;9944;48.240;16.478;2024-01-07T06:29:03;98973.31;;;-0.47;81.00
19594;BME280;9944;48.240;16.478;2024-01-07T06:33:28;98970.69;;;-0.48;80.81
19594;BME280;9944;48.240;16.478;2024-01-07T06:37:51;98973.19;;;-0.52;81.39
19594;BME280;9944;48.240;16.478;2024-01-07T06:42:15;98973.94;;;-0.56;81.68
19594;BME280;9944;48.240;16.478;2024-01-07T06:46:39;98975.50;;;-0.62;81.97
19594;BME280;9944;48.240;16.478;2024-01-07T06:51:04;98983.22;;;-0.64;82.51
19594;BME280;9944;48.240;16.478;2024-01-07T06:55:27;99003.94;;;-0.64;83.30
19594;BME280;9944;48.240;16.478;2024-01-07T06:59:52;99000.44;;;-0.66;83.45
19594;BME280;9944;48.240;16.478;2024-01-07T07:04:15;99002.03;;;-0.71;83.69
19594;BME280;9944;48.240;16.478;2024-01-07T07:08:40;99000.16;;;-0.75;84.11
19594;BME280;9944;48.240;16.478;2024-01-07T07:13:04;99024.13;;;-0.82;84.18
19594;BME280;9944;48.240;16.478;2024-01-07T07:17:28;99025.72;;;-0.88;84.22
19594;BME280;9944;48.240;16.478;2024-01-07T07:21:51;99035.22;;;-0.88;84.82
19594;BME280;9944;48.240;16.478;2024-01-07T07:26:17;99052.19;;;-0.98;84.43
19594;BME280;9944;48.240;16.478;2024-01-07T07:30:40;99037.38;;;-1.02;84.60
19594;BME280;9944;48.240;16.478;2024-01-07T07:35:04;99041.59;;;-1.06;84.85
19594;BME280;9944;48.240;16.478;2024-01-07T07:39:29;99060.50;;;-1.08;85.22
19594;BME280;9944;48.240;16.478;2024-01-07T07:43:54;99060.50;;;-1.08;84.93
19594;BME280;9944;48.240;16.478;2024-01-07T07:48:18;99056.16;;;-1.09;84.66
19594;BME280;9944;48.240;16.478;2024-01-07T07:52:42;99067.34;;;-1.10;84.09
19594;BME280;9944;48.240;16.478;2024-01-07T07:57:06;99079.47;;;-1.09;83.52
19594;BME280;9944;48.240;16.478;2024-01-07T08:01:31;99078.63;;;-1.08;83.40
19594;BME280;9944;48.240;16.478;2024-01-07T08:05:54;99080.28;;;-1.10;83.97
19594;BME280;9944;48.240;16.478;2024-01-07T08:10:18;99082.16;;;-1.06;82.96
19594;BME280;9944;48.240;16.478;2024-01-07T08:14:41;99099.28;;;-1.11;82.12
19594;BME280;9944;48.240;16.478;2024-01-07T08:19:07;99102.69;;;-1.12;82.27
19594;BME280;9944;48.240;16.478;2024-01-07T08:23:30;99112.16;;;-1.13;82.51
19594;BME280;9944;48.240;16.478;2024-01-07T08:27:55;99110.41;;;-1.14;81.96
19594;BME280;9944;48.240;16.478;2024-01-07T08:32:19;99116.44;;;-1.15;80.93
19594;BME280;9944;48.240;16.478;2024-01-07T08:36:46;99125.94;;;-1.14;81.11
19594;BME280;9944;48.240;16.478;2024-01-07T08:41:09;99139.56;;;-1.19;80.06
19594;BME280;9944;48.240;16.478;2024-01-07T08:45:33;99137.75;;;-1.22;80.08
19594;BME280;9944;48.240;16.478;2024-01-07T08:49:56;99147.97;;;-1.27;80.66
19594;BME280;9944;48.240;16.478;2024-01-07T08:54:22;99147.06;;;-1.29;80.71
19594;BME280;9944;48.240;16.478;2024-01-07T08:58:45;99152.88;;;-1.34;81.39
19594;BME280;9944;48.240;16.478;2024-01-07T09:03:09;99152.81;;;-1.36;81.85
19594;BME280;9944;48.240;16.478;2024-01-07T09:07:32;99164.03;;;-1.37;81.06
19594;BME280;9944;48.240;16.478;2024-01-07T09:11:57;99178.56;;;-1.40;80.14
19594;BME280;9944;48.240;16.478;2024-01-07T09:16:22;99180.25;;;-1.42;79.58
19594;BME280;9944;48.240;16.478;2024-01-07T09:20:46;99165.47;;;-1.45;80.28
19594;BME280;9944;48.240;16.478;2024-01-07T09:25:09;99166.22;;;-1.49;81.01
19594;BME280;9944;48.240;16.478;2024-01-07T09:29:35;99171.31;;;-1.51;80.97
19594;BME280;9944;48.240;16.478;2024-01-07T09:33:58;99173.19;;;-1.47;81.47
19594;BME280;9944;48.240;16.478;2024-01-07T09:38:24;99174.09;;;-1.46;81.73
19594;BME280;9944;48.240;16.478;2024-01-07T09:42:48;99175.94;;;-1.42;81.33
19594;BME280;9944;48.240;16.478;2024-01-07T09:47:14;99184.63;;;-1.40;80.51
19594;BME280;9944;48.240;16.478;2024-01-07T09:51:39;99189.69;;;-1.43;80.01
19594;BME280;9944;48.240;16.478;2024-01-07T09:56:11;99178.41;;;-1.45;79.55
19594;BME280;9944;48.240;16.478;2024-01-07T10:00:36;99184.44;;;-1.46;79.12
19594;BME280;9944;48.240;16.478;2024-01-07T10:17:17;99185.50;;;-1.39;80.18
19594;BME280;9944;48.240;16.478;2024-01-07T10:21:41;99173.50;;;-1.37;80.61
19594;BME280;9944;48.240;16.478;2024-01-07T10:26:05;99182.31;;;-1.32;82.11
19594;BME280;9944;48.240;16.478;2024-01-07T10:30:48;99184.06;;;-1.31;83.20
19594;BME280;9944;48.240;16.478;2024-01-07T10:35:18;99172.94;;;-1.29;83.20
19594;BME280;9944;48.240;16.478;2024-01-07T10:39:44;99172.84;;;-1.32;82.63
19594;BME280;9944;48.240;16.478;2024-01-07T10:44:10;99184.84;;;-1.34;80.34
19594;BME280;9944;48.240;16.478;2024-01-07T10:48:37;99191.72;;;-1.34;80.56
19594;BME280;9944;48.240;16.478;2024-01-07T10:53:04;99185.78;;;-1.32;81.21
19594;BME280;9944;48.240;16.478;2024-01-07T10:57:34;99199.88;;;-1.23;82.55
19594;BME280;9944;48.240;16.478;2024-01-07T11:02:00;99194.41;;;-1.31;82.20
19594;BME280;9944;48.240;16.478;2024-01-07T11:06:33;99191.66;;;-1.36;81.89
19594;BME280;9944;48.240;16.478;2024-01-07T11:11:05;99190.09;;;-1.31;82.54
19594;BME280;9944;48.240;16.478;2024-01-07T11:15:51;99191.06;;;-1.29;82.94
19594;BME280;9944;48.240;16.478;2024-01-07T11:20:19;99190.78;;;-1.36;83.08
19594;BME280;9944;48.240;16.478;2024-01-07T11:24:43;99185.66;;;-1.35;83.56
19594;BME280;9944;48.240;16.478;2024-01-07T11:29:08;99192.63;;;-1.34;83.92
19594;BME280;9944;48.240;16.478;2024-01-07T11:33:33;99189.50;;;-1.23;84.61
19594;BME280;9944;48.240;16.478;2024-01-07T11:37:57;99196.03;;;-1.09;84.34
19594;BME280;9944;48.240;16.478;2024-01-07T11:42:21;99192.50;;;-1.11;83.69
19594;BME280;9944;48.240;16.478;2024-01-07T11:46:47;99187.91;;;-1.20;83.04
19594;BME280;9944;48.240;16.478;2024-01-07T11:51:10;99188.66;;;-1.22;83.27
19594;BME280;9944;48.240;16.478;2024-01-07T11:55:35;99186.81;;;-1.27;83.52
19594;BME280;9944;48.240;16.478;2024-01-07T12:00:00;99186.59;;;-1.33;83.16
19594;BME280;9944;48.240;16.478;2024-01-07T12:04:34;99180.38;;;-1.38;83.39
19594;BME280;9944;48.240;16.478;2024-01-07T12:09:00;99181.94;;;-1.43;83.67
19594;BME280;9944;48.240;16.478;2024-01-07T12:13:24;99186.28;;;-1.42;83.82
19594;BME280;9944;48.240;16.478;2024-01-07T12:17:55;99190.47;;;-1.46;83.77
19594;BME280;9944;48.240;16.478;2024-01-07T12:22:22;99194.72;;;-1.48;84.01
19594;BME280;9944;48.240;16.478;2024-01-07T12:26:46;99197.41;;;-1.45;84.52
19594;BME280;9944;48.240;16.478;2024-01-07T12:31:10;99200.78;;;-1.47;84.52
19594;BME280;9944;48.240;16.478;2024-01-07T12:35:34;99200.84;;;-1.46;84.48
19594;BME280;9944;48.240;16.478;2024-01-07T12:39:59;99191.16;;;-1.51;84.41
19594;BME280;9944;48.240;16.478;2024-01-07T12:44:27;99197.22;;;-1.51;84.64
19594;BME280;9944;48.240;16.478;2024-01-07T12:48:51;99203.53;;;-1.42;85.22
19594;BME280;9944;48.240;16.478;2024-01-07T12:53:15;99194.78;;;-1.46;85.02
19594;BME280;9944;48.240;16.478;2024-01-07T12:57:40;99204.19;;;-1.48;85.14
19594;BME280;9944;48.240;16.478;2024-01-07T13:02:04;99206.88;;;-1.45;85.39
19594;BME280;9944;48.240;16.478;2024-01-07T13:06:29;99200.94;;;-1.42;85.36
19594;BME280;9944;48.240;16.478;2024-01-07T13:10:53;99208.78;;;-1.41;85.54
19594;BME280;9944;48.240;16.478;2024-01-07T13:15:18;99208.78;;;-1.41;85.14
19594;BME280;9944;48.240;16.478;2024-01-07T13:19:42;99218.97;;;-1.46;84.86
19594;BME280;9944;48.240;16.478;2024-01-07T13:24:07;99226.84;;;-1.42;85.20
19594;BME280;9944;48.240;16.478;2024-01-07T13:28:30;99229.47;;;-1.41;84.45
19594;BME280;9944;48.240;16.478;2024-01-07T13:32:56;99232.72;;;-1.47;84.43
19594;BME280;9944;48.240;16.478;2024-01-07T13:37:23;99238.81;;;-1.45;84.23
19594;BME280;9944;48.240;16.478;2024-01-07T13:41:47;99249.16;;;-1.45;83.64
19594;BME280;9944;48.240;16.478;2024-01-07T13:46:11;99244.00;;;-1.45;83.63
19594;BME280;9944;48.240;16.478;2024-01-07T13:50:37;99259.50;;;-1.46;83.56
19594;BME280;9944;48.240;16.478;2024-01-07T13:55:00;99254.34;;;-1.45;83.49
19594;BME280;9944;48.240;16.478;2024-01-07T13:59:25;99253.47;;;-1.45;83.08
19594;BME280;9944;48.240;16.478;2024-01-07T14:03:49;99265.59;;;-1.44;82.94
19594;BME280;9944;48.240;16.478;2024-01-07T14:08:14;99260.31;;;-1.47;82.39
19594;BME280;9944;48.240;16.478;2024-01-07T14:12:38;99264.50;;;-1.51;82.03
19594;BME280;9944;48.240;16.478;2024-01-07T14:17:03;99266.25;;;-1.50;81.70
19594;BME280;9944;48.240;16.478;2024-01-07T14:21:26;99279.16;;;-1.51;81.78
19594;BME280;9944;48.240;16.478;2024-01-07T14:25:53;99274.72;;;-1.54;81.46
19594;BME280;9944;48.240;16.478;2024-01-07T14:30:17;99280.91;;;-1.50;81.40
19594;BME280;9944;48.240;16.478;2024-01-07T14:34:41;99289.59;;;-1.48;81.41
19594;BME280;9944;48.240;16.478;2024-01-07T14:39:07;99292.91;;;-1.52;81.08
19594;BME280;9944;48.240;16.478;2024-01-07T14:43:32;99298.09;;;-1.52;81.33
19594;BME280;9944;48.240;16.478;2024-01-07T14:47:56;99306.91;;;-1.47;81.68
19594;BME280;9944;48.240;16.478;2024-01-07T14:52:19;99310.41;;;-1.45;81.81
19594;BME280;9944;48.240;16.478;2024-01-07T14:56:43;99316.59;;;-1.41;81.91
19594;BME280;9944;48.240;16.478;2024-01-07T15:01:08;99316.75;;;-1.37;82.00
19594;BME280;9944;48.240;16.478;2024-01-07T15:05:32;99327.19;;;-1.35;81.83
19594;BME280;9944;48.240;16.478;2024-01-07T15:09:56;99322.66;;;-1.41;81.56
19594;BME280;9944;48.240;16.478;2024-01-07T15:14:22;99324.41;;;-1.40;81.60
19594;BME280;9944;48.240;16.478;2024-01-07T15:18:47;99330.31;;;-1.44;81.51
19594;BME280;9944;48.240;16.478;2024-01-07T15:23:11;99338.84;;;-1.47;81.45
19594;BME280;9944;48.240;16.478;2024-01-07T15:27:35;99341.47;;;-1.45;81.90
19594;BME280;9944;48.240;16.478;2024-01-07T15:31:59;99339.75;;;-1.46;82.04
19594;BME280;9944;48.240;16.478;2024-01-07T15:36:24;99355.28;;;-1.46;82.11
19594;BME280;9944;48.240;16.478;2024-01-07T15:40:48;99355.25;;;-0.98;84.41
19594;BME280;9944;48.240;16.478;2024-01-07T15:45:12;99363.03;;;-0.98;82.12
19594;BME280;9944;48.240;16.478;2024-01-07T15:49:36;99367.72;;;-1.12;81.45
19594;BME280;9944;48.240;16.478;2024-01-07T15:54:01;99382.72;;;-1.27;79.48
19594;BME280;9944;48.240;16.478;2024-01-07T15:58:25;99376.19;;;-1.40;79.41
19594;BME280;9944;48.240;16.478;2024-01-07T16:02:53;99388.84;;;-1.48;79.24
19594;BME280;9944;48.240;16.478;2024-01-07T16:07:17;99397.31;;;-1.52;79.89
19594;BME280;9944;48.240;16.478;2024-01-07T16:11:42;99402.41;;;-1.55;80.03
19594;BME280;9944;48.240;16.478;2024-01-07T16:16:07;99407.56;;;-1.55;78.16
19594;BME280;9944;48.240;16.478;2024-01-07T16:20:31;99412.69;;;-1.56;77.62
19594;BME280;9944;48.240;16.478;2024-01-07T16:24:56;99413.50;;;-1.57;76.74
19594;BME280;9944;48.240;16.478;2024-01-07T16:29:20;99411.72;;;-1.58;77.43
19594;BME280;9944;48.240;16.478;2024-01-07T16:33:51;99426.44;;;-1.57;76.92
19594;BME280;9944;48.240;16.478;2024-01-07T16:38:15;99433.19;;;-1.61;76.91
19594;BME280;9944;48.240;16.478;2024-01-07T16:42:40;99441.75;;;-1.64;75.29
19594;BME280;9944;48.240;16.478;2024-01-07T16:47:07;99441.66;;;-1.65;75.83
19594;BME280;9944;48.240;16.478;2024-01-07T16:51:32;99446.66;;;-1.70;75.42
19594;BME280;9944;48.240;16.478;2024-01-07T16:55:56;99456.19;;;-1.69;75.33
19594;BME280;9944;48.240;16.478;2024-01-07T16:59:59;99467.34;;;-1.70;75.67
19594;BME280;9944;48.240;16.478;2024-01-07T17:04:06;99463.97;;;-1.69;75.40
19594;BME280;9944;48.240;16.478;2024-01-07T17:08:09;99463.81;;;-1.72;74.60
19594;BME280;9944;48.240;16.478;2024-01-07T17:12:13;99466.41;;;-1.72;74.57
19594;BME280;9944;48.240;16.478;2024-01-07T17:16:16;99471.59;;;-1.72;74.74
19594;BME280;9944;48.240;16.478;2024-01-07T17:20:21;99465.41;;;-1.75;74.42
19594;BME280;9944;48.240;16.478;2024-01-07T17:24:25;99472.47;;;-1.71;74.52
19594;BME280;9944;48.240;16.478;2024-01-07T17:28:28;99479.47;;;-1.69;74.63
19594;BME280;9944;48.240;16.478;2024-01-07T17:32:32;99485.59;;;-1.67;74.45
19594;BME280;9944;48.240;16.478;2024-01-07T17:36:37;99492.53;;;-1.66;73.93
19594;BME280;9944;48.240;16.478;2024-01-07T17:40:40;99486.53;;;-1.65;73.67
19594;BME280;9944;48.240;16.478;2024-01-07T17:44:44;99494.38;;;-1.63;73.53
19594;BME280;9944;48.240;16.478;2024-01-07T17:48:50;99501.34;;;-1.60;71.83
19594;BME280;9944;48.240;16.478;2024-01-07T17:52:55;99508.19;;;-1.63;71.68
19594;BME280;9944;48.240;16.478;2024-01-07T17:56:58;99508.19;;;-1.63;72.99
19594;BME280;9944;48.240;16.478;2024-01-07T18:01:02;99513.47;;;-1.59;73.64
19594;BME280;9944;48.240;16.478;2024-01-07T18:05:05;99517.00;;;-1.57;73.40
19594;BME280;9944;48.240;16.478;2024-01-07T18:09:10;99521.38;;;-1.56;72.69
19594;BME280;9944;48.240;16.478;2024-01-07T18:13:14;99521.31;;;-1.58;73.04
19594;BME280;9944;48.240;16.478;2024-01-07T18:17:17;99527.50;;;-1.54;73.48
19594;BME280;9944;48.240;16.478;2024-01-07T18:21:21;99527.63;;;-1.51;73.12
19594;BME280;9944;48.240;16.478;2024-01-07T18:25:26;99521.47;;;-1.53;73.04
19594;BME280;9944;48.240;16.478;2024-01-07T18:29:29;99535.19;;;-1.56;72.43
19594;BME280;9944;48.240;16.478;2024-01-07T18:33:33;99535.91;;;-1.60;71.38
19594;BME280;9944;48.240;16.478;2024-01-07T18:37:36;99547.00;;;-1.63;72.05
19594;BME280;9944;48.240;16.478;2024-01-07T18:41:42;99542.66;;;-1.64;72.47
19594;BME280;9944;48.240;16.478;2024-01-07T18:45:46;99545.34;;;-1.60;72.52
19594;BME280;9944;48.240;16.478;2024-01-07T18:49:49;99550.59;;;-1.59;72.16
19594;BME280;9944;48.240;16.478;2024-01-07T18:53:52;99554.75;;;-1.63;71.32
19594;BME280;9944;48.240;16.478;2024-01-07T18:57:58;99568.41;;;-1.67;71.15
19594;BME280;9944;48.240;16.478;2024-01-07T19:02:02;99570.06;;;-1.69;71.55
19594;BME280;9944;48.240;16.478;2024-01-07T19:06:06;99566.47;;;-1.71;71.89
19594;BME280;9944;48.240;16.478;2024-01-07T19:10:10;99575.09;;;-1.72;71.76
19594;BME280;9944;48.240;16.478;2024-01-07T19:14:15;99590.63;;;-1.72;71.92
19594;BME280;9944;48.240;16.478;2024-01-07T19:18:20;99587.13;;;-1.72;71.92
19594;BME280;9944;48.240;16.478;2024-01-07T19:22:23;99593.06;;;-1.75;72.04
19594;BME280;9944;48.240;16.478;2024-01-07T19:26:28;99595.50;;;-1.78;71.67
19594;BME280;9944;48.240;16.478;2024-01-07T19:30:33;99611.09;;;-1.76;71.58
19594;BME280;9944;48.240;16.478;2024-01-07T19:34:37;99611.75;;;-1.82;71.65
19594;BME280;9944;48.240;16.478;2024-01-07T19:38:41;99616.06;;;-1.81;71.79
19594;BME280;9944;48.240;16.478;2024-01-07T19:42:44;99623.59;;;-1.87;70.91
19594;BME280;9944;48.240;16.478;2024-01-07T19:46:49;99622.50;;;-1.92;70.77
19594;BME280;9944;48.240;16.478;2024-01-07T19:50:53;99622.50;;;-1.92;70.64
19594;BME280;9944;48.240;16.478;2024-01-07T19:54:56;99628.38;;;-1.96;70.38
19594;BME280;9944;48.240;16.478;2024-01-07T19:59:00;99634.34;;;-1.97;70.49
19594;BME280;9944;48.240;16.478;2024-01-07T20:03:05;99656.69;;;-1.99;71.26
19594;BME280;9944;48.240;16.478;2024-01-07T20:07:08;99638.59;;;-1.99;70.24
19594;BME280;9944;48.240;16.478;2024-01-07T20:11:15;99649.59;;;-2.04;69.82
19594;BME280;9944;48.240;16.478;2024-01-07T20:15:20;99656.25;;;-2.09;69.75
19594;BME280;9944;48.240;16.478;2024-01-07T20:19:25;99658.81;;;-2.10;69.95
19594;BME280;9944;48.240;16.478;2024-01-07T20:23:29;99659.53;;;-2.13;69.74
19594;BME280;9944;48.240;16.478;2024-01-07T20:27:32;99667.16;;;-2.16;69.77
19594;BME280;9944;48.240;16.478;2024-01-07T20:31:36;99674.78;;;-2.19;69.96
19594;BME280;9944;48.240;16.478;2024-01-07T20:35:42;99679.97;;;-2.19;69.72
19594;BME280;9944;48.240;16.478;2024-01-07T20:39:46;99678.03;;;-2.23;69.55
19594;BME280;9944;48.240;16.478;2024-01-07T20:43:50;99685.78;;;-2.23;69.31
19594;BME280;9944;48.240;16.478;2024-01-07T20:47:54;99696.81;;;-2.27;69.09
19594;BME280;9944;48.240;16.478;2024-01-07T20:51:59;99689.06;;;-2.27;68.79
19594;BME280;9944;48.240;16.478;2024-01-07T20:56:03;99700.81;;;-2.34;67.96
19594;BME280;9944;48.240;16.478;2024-01-07T21:00:07;99705.97;;;-2.34;67.79
19594;BME280;9944;48.240;16.478;2024-01-07T21:04:12;99706.44;;;-2.43;68.00
19594;BME280;9944;48.240;16.478;2024-01-07T21:08:18;99722.75;;;-2.44;68.22
19594;BME280;9944;48.240;16.478;2024-01-07T21:12:22;99719.97;;;-2.48;67.65
19594;BME280;9944;48.240;16.478;2024-01-07T21:16:25;99730.06;;;-2.53;68.14
19594;BME280;9944;48.240;16.478;2024-01-07T21:20:29;99739.53;;;-2.53;67.79
19594;BME280;9944;48.240;16.478;2024-01-07T21:24:34;99733.28;;;-2.59;67.66
19594;BME280;9944;48.240;16.478;2024-01-07T21:28:38;99733.91;;;-2.63;67.52
19594;BME280;9944;48.240;16.478;2024-01-07T21:32:42;99739.84;;;-2.65;67.20
19594;BME280;9944;48.240;16.478;2024-01-07T21:36:45;99750.00;;;-2.68;67.17
19594;BME280;9944;48.240;16.478;2024-01-07T21:40:50;99757.69;;;-2.70;67.64
19594;BME280;9944;48.240;16.478;2024-01-07T21:44:55;99752.31;;;-2.74;67.31
19594;BME280;9944;48.240;16.478;2024-01-07T21:48:59;99751.31;;;-2.77;66.65
19594;BME280;9944;48.240;16.478;2024-01-07T21:53:03;99759.75;;;-2.81;67.03
19594;BME280;9944;48.240;16.478;2024-01-07T21:57:08;99758.03;;;-2.80;66.76
19594;BME280;9944;48.240;16.478;2024-01-07T22:01:12;99757.84;;;-2.85;66.93
19594;BME280;9944;48.240;16.478;2024-01-07T22:05:15;99764.59;;;-2.87;67.25
19594;BME280;9944;48.240;16.478;2024-01-07T22:09:19;99768.00;;;-2.88;66.35
19594;BME280;9944;48.240;16.478;2024-01-07T22:13:24;99755.78;;;-2.92;66.70
19594;BME280;9944;48.240;16.478;2024-01-07T22:17:27;99764.31;;;-2.93;67.28
19594;BME280;9944;48.240;16.478;2024-01-07T22:21:32;99766.91;;;-2.93;66.48
19594;BME280;9944;48.240;16.478;2024-01-07T22:25:36;99770.19;;;-2.96;65.88
19594;BME280;9944;48.240;16.478;2024-01-07T22:29:41;99767.41;;;-3.00;65.76
19594;BME280;9944;48.240;16.478;2024-01-07T22:33:44;99773.22;;;-3.04;66.21
19594;BME280;9944;48.240;16.478;2024-01-07T22:37:49;99787.91;;;-3.03;65.86
19594;BME280;9944;48.240;16.478;2024-01-07T22:41:54;99775.66;;;-3.07;65.37
19594;BME280;9944;48.240;16.478;2024-01-07T22:45:58;99778.09;;;-3.10;65.76
19594;BME280;9944;48.240;16.478;2024-01-07T22:50:04;99789.06;;;-3.15;65.98
19594;BME280;9944;48.240;16.478;2024-01-07T22:54:08;99796.00;;;-3.14;66.28
19594;BME280;9944;48.240;16.478;2024-01-07T22:58:12;99806.16;;;-3.17;66.04
19594;BME280;9944;48.240;16.478;2024-01-07T23:02:18;99790.66;;;-3.17;65.82
19594;BME280;9944;48.240;16.478;2024-01-07T23:06:22;99795.69;;;-3.20;66.09